Flight Track Log - Related Links

Times and Time Zones

All times are in EDT time to prevent confusion due to time zone crossing. See the N340WJ flight status page for this flight to view local times or setup timezone preferences in your user account.

Time Position Orientation Groundspeed Altitude Reporting Facility
EDT Latitude Longitude Course Direction KTS MPH feet Rate Location/Type
Fri 08:19:06 PM 42.4150 -90.6847 318° Northwest 130 150 3,300  Level Chicago Center
Fri 08:20:09 PM 42.4469 -90.7261 316° Northwest 133 153 4,600 1,104 Climbing Chicago Center
Fri 08:21:00 PM 42.6098 -90.9619 318° Northwest  Level Estimated
Fri 08:21:11 PM 42.4733 -90.7611 316° Northwest 133 153 5,600  Level Chicago Center
Fri 08:22:00 PM 42.6444 -91.0041 318° Northwest  Level Estimated
Fri 08:22:13 PM 42.5003 -90.7939 318° Northwest 133 153 6,500  Level Chicago Center
Fri 08:23:00 PM 42.6790 -91.0464 318° Northwest  Level Estimated
Fri 08:23:15 PM 42.5289 -90.8278 319° Northwest 134 154 7,400  Level Chicago Center
Fri 08:24:00 PM 42.7135 -91.0887 318° Northwest  Level Estimated
Fri 08:24:17 PM 42.5583 -90.8636 318° Northwest 141 162 8,500  Level Chicago Center
Fri 08:25:19 PM 42.5894 -90.9025 317° Northwest 132 152 9,800 1,113 Climbing Chicago Center
Fri 08:26:21 PM 42.6169 -90.9347 319° Northwest 131 151 10,800 919 Climbing Chicago Center
Fri 08:27:23 PM 42.6433 -90.9683 317° Northwest 130 150 11,700 919 Climbing Chicago Center
Fri 08:28:25 PM 42.6694 -91.0006 318° Northwest 129 148 12,700 1,016 Climbing Chicago Center
Fri 08:29:27 PM 42.7008 -91.0383 319° Northwest 127 146 13,800 919 Climbing Chicago Center
Fri 08:30:29 PM 42.7286 -91.0714 319° Northwest 135 155 14,600 774 Climbing Chicago Center
Fri 08:31:31 PM 42.7583 -91.1083 318° Northwest 144 166 15,400 629 Climbing Chicago Center
Fri 08:32:33 PM 42.7883 -91.1458 317° Northwest 146 168 15,900 290 Climbing Chicago Center
Fri 08:33:35 PM 42.8231 -91.1881 318° Northwest 165 190 16,000 48 Climbing Chicago Center
Fri 08:34:37 PM 42.8667 -91.2414 318° Northwest 177 204 16,000 -56 Level Chicago Center
Fri 08:35:23 PM 42.8872 -91.2669 318° Northwest 177 204 15,900 -56 Descending Minneapolis Center
Fri 08:36:25 PM 42.9294 -91.3197 318° Northwest 174 200 15,900 97 Level Minneapolis Center
Fri 08:37:27 PM 42.9647 -91.3625 318° Northwest 173 199 16,100 48 Climbing Minneapolis Center
Fri 08:38:29 PM 43.0000 -91.4056 318° Northwest 173 199 16,000 -48 Descending Minneapolis Center
Fri 08:39:31 PM 43.0339 -91.4492 317° Northwest 171 197 16,000  Level Minneapolis Center
Fri 08:40:33 PM 43.0753 -91.5011 317° Northwest 170 196 16,000  Level Minneapolis Center
Fri 08:41:35 PM 43.1092 -91.5439 317° Northwest 169 194 16,000  Level Minneapolis Center
Fri 08:42:37 PM 43.1431 -91.5856 318° Northwest 167 192 16,000  Level Minneapolis Center
Fri 08:43:39 PM 43.1769 -91.6286 317° Northwest 167 192 16,000  Level Minneapolis Center
Fri 08:44:41 PM 43.2111 -91.6728 317° Northwest 170 196 16,000 48 Level Minneapolis Center
Fri 08:45:43 PM 43.2514 -91.7236 317° Northwest 166 191 16,100  Climbing Minneapolis Center
Fri 08:46:45 PM 43.2892 -91.7703 318° Northwest 172 198 16,000 -48 Descending Minneapolis Center
Fri 08:47:47 PM 43.3244 -91.8144 318° Northwest 173 199 16,000  Level Minneapolis Center
Fri 08:48:49 PM 43.3631 -91.8633 317° Northwest 174 200 16,000  Level Minneapolis Center
Fri 08:49:51 PM 43.3981 -91.9083 317° Northwest 174 200 16,000  Level Minneapolis Center
Fri 08:50:53 PM 43.4356 -91.9561 317° Northwest 174 200 16,000  Level Minneapolis Center
Fri 08:51:55 PM 43.4733 -92.0042 317° Northwest 173 199 16,000  Level Minneapolis Center
Fri 08:52:57 PM 43.5086 -92.0497 317° Northwest 174 200 16,000  Level Minneapolis Center
Fri 08:53:59 PM 43.5464 -92.0983 317° Northwest 172 198 16,000  Level Minneapolis Center
Fri 08:55:02 PM 43.5817 -92.1433 317° Northwest 172 198 16,000  Level Minneapolis Center
Fri 08:56:04 PM 43.6192 -92.1911 317° Northwest 171 197 16,000  Level Minneapolis Center
Fri 08:57:06 PM 43.6539 -92.2356 317° Northwest 172 198 16,000  Level Minneapolis Center
Fri 08:58:08 PM 43.6911 -92.2833 317° Northwest 171 197 16,000  Level Minneapolis Center
Fri 08:59:10 PM 43.7253 -92.3281 317° Northwest 171 197 16,000  Level Minneapolis Center
Fri 09:00:12 PM 43.7625 -92.3764 317° Northwest 171 197 16,000  Level Minneapolis Center
Fri 09:01:14 PM 43.7964 -92.4203 317° Northwest 170 196 16,000  Level Minneapolis Center
Fri 09:02:16 PM 43.8331 -92.4681 317° Northwest 169 194 16,000  Level Minneapolis Center
Fri 09:03:18 PM 43.8675 -92.5114 318° Northwest 168 193 16,000  Level Minneapolis Center
Fri 09:04:20 PM 43.9031 -92.5589 316° Northwest 165 190 16,000  Level Minneapolis Center
Fri 09:05:22 PM 43.9369 -92.6031 317° Northwest 168 193 16,000  Level Minneapolis Center
Fri 09:06:24 PM 43.9736 -92.6514 317° Northwest 170 196 16,000  Level Minneapolis Center
Fri 09:07:26 PM 44.0081 -92.6969 316° Northwest 171 197 16,000  Level Minneapolis Center
Fri 09:08:28 PM 44.0450 -92.7456 317° Northwest 173 199 16,000  Level Minneapolis Center
Fri 09:09:30 PM 44.0781 -92.7892 317° Northwest 172 198 16,000  Level Minneapolis Center
Fri 09:10:32 PM 44.1136 -92.8358 317° Northwest 176 203 16,000  Level Minneapolis Center
Fri 09:11:34 PM 44.1478 -92.8811 316° Northwest 172 198 16,000  Level Minneapolis Center
Fri 09:12:36 PM 44.1833 -92.9278 317° Northwest 173 199 16,000  Level Minneapolis Center
Fri 09:13:38 PM 44.2256 -92.9842 316° Northwest 175 201 16,000  Level Minneapolis Center
Fri 09:14:40 PM 44.2606 -93.0308 316° Northwest 174 200 16,000  Level Minneapolis Center
Fri 09:15:42 PM 44.2958 -93.0769 317° Northwest 175 201 16,000  Level Minneapolis Center
Fri 09:16:44 PM 44.3308 -93.1236 316° Northwest 174 200 16,000  Level Minneapolis Center
Fri 09:17:47 PM 44.3658 -93.1700 317° Northwest 173 199 16,000  Level Minneapolis Center
Fri 09:18:49 PM 44.4017 -93.2178 316° Northwest 176 203 16,000  Level Minneapolis Center
Fri 09:19:51 PM 44.4447 -93.2756 316° Northwest 179 206 16,000  Level Minneapolis Center
Fri 09:20:53 PM 44.4814 -93.3250 316° Northwest 182 209 16,000  Level Minneapolis Center
Fri 09:21:54 PM 44.5111 -93.3642 317° Northwest 184 212 16,000  Level Minneapolis Center
Fri 09:22:57 PM 44.5544 -93.4233 316° Northwest 181 208 16,000  Level Minneapolis Center
Fri 09:23:59 PM 44.5906 -93.4722 316° Northwest 179 206 16,000  Level Minneapolis Center
Fri 09:25:01 PM 44.6267 -93.5217 316° Northwest 181 208 16,000  Level Minneapolis Center
Fri 09:26:03 PM 44.6708 -93.5800 317° Northwest 181 208 16,000  Level Minneapolis Center
Fri 09:27:05 PM 44.7072 -93.6303 316° Northwest 183 211 16,000  Level Minneapolis Center
Fri 09:28:19 PM 44.7447 -93.6803 317° Northwest 185 213 16,000  Level Minneapolis Center
Fri 09:29:21 PM 44.7892 -93.7417 316° Northwest 186 214 16,000  Level Minneapolis Center
Fri 09:30:23 PM 44.8264 -93.7922 316° Northwest 186 214 16,000  Level Minneapolis Center
Fri 09:31:25 PM 44.8633 -93.8431 316° Northwest 185 213 16,000 -48 Level Minneapolis Center
Fri 09:32:27 PM 44.9089 -93.9036 317° Northwest 188 216 15,900 -48 Descending Minneapolis Center
Fri 09:33:29 PM 44.9461 -93.9550 316° Northwest 187 215 15,900  Level Minneapolis Center
Fri 09:34:31 PM 44.9833 -94.0069 315° West 188 216 15,900  Level Minneapolis Center
Fri 09:35:32 PM 45.0211 -94.0578 316° Northwest 188 216 15,900  Level Minneapolis Center
Fri 09:36:34 PM 45.0581 -94.1089 316° Northwest 186 214 15,900  Level Minneapolis Center
Fri 09:37:48 PM 45.0950 -94.1611 315° West 189 217 15,900  Level Minneapolis Center
Fri 09:38:50 PM 45.1397 -94.2225 316° Northwest 187 215 15,900  Level Minneapolis Center
Fri 09:39:52 PM 45.1844 -94.2856 315° West 188 216 15,900  Level Minneapolis Center
Fri 09:40:53 PM 45.2214 -94.3372 315° West 186 214 15,900  Level Minneapolis Center
Fri 09:41:55 PM 45.2592 -94.3886 316° Northwest 188 216 15,900  Level Minneapolis Center
Fri 09:42:57 PM 45.2958 -94.4394 316° Northwest 185 213 15,900  Level Minneapolis Center
Fri 09:43:58 PM 45.3331 -94.4914 316° Northwest 187 215 15,900  Level Minneapolis Center
Fri 09:45:00 PM 45.3689 -94.5419 315° West 183 211 15,900 48 Level Minneapolis Center
Fri 09:46:02 PM 45.4056 -94.5933 315° West 185 213 16,000 49 Climbing Minneapolis Center
Fri 09:47:03 PM 45.4494 -94.6550 315° West 185 213 16,000  Level Minneapolis Center
Fri 09:48:05 PM 45.4861 -94.7072 315° West 186 214 16,000  Level Minneapolis Center
Fri 09:49:06 PM 45.5225 -94.7589 315° West 186 214 16,000  Level Minneapolis Center
Fri 09:50:20 PM 45.5583 -94.8103 315° West 185 213 16,000  Level Minneapolis Center
Fri 09:51:22 PM 45.6017 -94.8719 315° West 184 212 16,000  Level Minneapolis Center
Fri 09:52:23 PM 45.6378 -94.9225 316° Northwest 183 211 16,000  Level Minneapolis Center
Fri 09:53:25 PM 45.6739 -94.9739 315° West 184 212 16,000  Level Minneapolis Center
Fri 09:54:26 PM 45.7169 -95.0353 315° West 183 211 16,000  Level Minneapolis Center
Fri 09:55:40 PM 45.7469 -95.0783 315° West 181 208 16,000  Level Minneapolis Center
Fri 09:56:41 PM 45.7975 -95.1506 315° West 183 211 16,000  Level Minneapolis Center
Fri 09:57:43 PM 45.8333 -95.2025 315° West 184 212 16,000  Level Minneapolis Center
Fri 09:58:44 PM 45.8692 -95.2550 314° West 184 212 16,000  Level Minneapolis Center
Fri 09:59:46 PM 45.9047 -95.3058 315° West 182 209 16,000  Level Minneapolis Center
Fri 10:00:47 PM 45.9403 -95.3589 314° West 184 212 16,000  Level Minneapolis Center
Fri 10:01:48 PM 45.9767 -95.4092 316° Northwest 183 211 16,000  Level Minneapolis Center
Fri 10:02:50 PM 46.0136 -95.4633 314° West 188 216 16,000  Level Minneapolis Center
Fri 10:03:51 PM 46.0489 -95.5161 314° West 186 214 16,000  Level Minneapolis Center
Fri 10:04:53 PM 46.0919 -95.5797 314° West 185 213 16,000  Level Minneapolis Center
Fri 10:05:54 PM 46.1289 -95.6303 317° Northwest 184 212 16,000  Level Minneapolis Center
Fri 10:06:56 PM 46.1647 -95.6842 314° West 186 214 16,000  Level Minneapolis Center
Fri 10:08:09 PM 46.2008 -95.7386 314° West 188 216 16,000  Level Minneapolis Center
Fri 10:09:11 PM 46.2433 -95.8006 315° West 183 211 16,000  Level Minneapolis Center
Fri 10:10:12 PM 46.2847 -95.8614 315° West 188 216 16,000 -133 Level Minneapolis Center
Fri 10:11:26 PM 46.3286 -95.9258 315° West 185 213 15,700 -356 Descending Minneapolis Center
Fri 10:12:27 PM 46.3675 -95.9856 313° West 198 228 15,200 -537 Descending Minneapolis Center
Fri 10:13:29 PM 46.4050 -96.0378 316° Northwest 196 226 14,600 -634 Descending Minneapolis Center
Fri 10:14:30 PM 46.4444 -96.0958 315° West 196 226 13,900 -885 Descending Minneapolis Center
Fri 10:15:31 PM 46.4836 -96.1556 314° West 199 229 12,800 -1,024 Descending Minneapolis Center
Fri 10:16:33 PM 46.5214 -96.2097 315° West 198 228 11,800 -1,024 Descending Minneapolis Center
Fri 10:17:34 PM 46.5661 -96.2631 321° Northwest 200 230 10,700 -1,033 Descending Minneapolis Center
Fri 10:18:35 PM 46.6008 -96.3075 319° Northwest 201 231 9,700 -1,220 Descending Minneapolis Center
Fri 10:19:37 PM 46.6547 -96.3725 320° Northwest 198 228 8,200 -1,268 Descending Minneapolis Center
Fri 10:20:38 PM 46.6936 -96.4206 320° Northwest 190 219 7,100 -1,024 Descending Minneapolis Center
Fri 10:21:40 PM 46.7342 -96.4711 319° Northwest 187 215 6,100 -976 Descending Minneapolis Center
Fri 10:22:41 PM 46.7742 -96.5208 320° Northwest 184 212 5,100 -732 Descending Minneapolis Center
Fri 10:23:43 PM 46.8119 -96.5681 319° Northwest 169 194 4,600 -537 Descending Minneapolis Center
Fri 10:24:44 PM 46.8469 -96.6111 320° Northwest 171 197 4,000 -541 Descending Minneapolis Center
Fri 10:25:45 PM 46.8811 -96.6547 319° Northwest 158 182 3,500 -711 Descending Minneapolis Center
Fri 10:26:59 PM 46.9186 -96.7006 320° Northwest 167 192 2,400 -756 Descending Minneapolis Center
Fri 10:28:00 PM 46.9569 -96.7531 317° Northwest 154 177 1,800 -488 Descending Minneapolis Center
Fri 10:29:02 PM 46.9619 -96.8056 278° West 127 146 1,400 -387 Descending Minneapolis Center

Login

Don't have an account? Register now (free) for customized features, flight alerts, and more!